Time;durP1;ratioP1;P1;durP2;ratioP2;P2;SDS_P1;SDS_P2;PMS_P1;PMS_P2;Temp;Humidity;BMP_temperature;BMP_pressure;BME280_temperature;BME280_humidity;BME280_pressure;Samples;Min_cycle;Max_cycle;Signal;HPM_P1;HPM_P2
2023/01/04 00:00:40;;;;;;;2.15;0.93;;;;;;;16.79;38.36;100485.41;6188638;23;20004;-88
2023/01/04 00:03:05;;;;;;;0.60;0.60;;;;;;;16.76;38.51;100469.66;6189054;23;20425;-89
2023/01/04 00:05:34;;;;;;;1.55;0.90;;;;;;;16.69;38.38;100465.19;6188493;23;20018;-89
2023/01/04 00:08:00;;;;;;;1.98;1.00;;;;;;;16.62;38.33;100442.81;6189383;23;20004;-88
2023/01/04 00:10:25;;;;;;;1.35;0.90;;;;;;;16.77;38.35;100471.31;6213735;23;20008;-88
2023/01/04 00:12:51;;;;;;;1.42;1.02;;;;;;;16.71;38.40;100463.06;6187877;23;20040;-88
2023/01/04 00:15:17;;;;;;;1.08;0.90;;;;;;;16.60;38.29;100444.13;6188403;23;20004;-89
2023/01/04 00:17:43;;;;;;;1.95;1.10;;;;;;;16.67;38.40;100456.47;6188049;23;20556;-89
2023/01/04 00:20:09;;;;;;;1.40;1.08;;;;;;;16.76;38.36;100467.78;6188706;23;20437;-89
2023/01/04 00:22:35;;;;;;;1.17;0.85;;;;;;;16.70;38.33;100461.41;6213226;23;20004;-89
2023/01/04 00:25:00;;;;;;;1.65;1.13;;;;;;;16.68;38.37;100452.72;6188523;23;20004;-88
2023/01/04 00:27:29;;;;;;;1.48;1.02;;;;;;;16.86;38.40;100486.16;6188804;23;20008;-88
2023/01/04 00:29:55;;;;;;;1.83;0.98;;;;;;;16.67;38.45;100459.16;6188460;23;20374;-88
2023/01/04 00:32:24;;;;;;;1.85;1.17;;;;;;;16.74;38.47;100471.75;6213537;23;20039;-89
2023/01/04 00:34:49;;;;;;;1.85;1.10;;;;;;;16.62;38.36;100452.78;6188389;23;20004;-89
2023/01/04 00:37:15;;;;;;;1.05;0.70;;;;;;;16.82;38.16;100490.34;6188173;23;20512;-89
2023/01/04 00:39:41;;;;;;;1.15;0.75;;;;;;;16.78;38.34;100475.63;6188861;23;20091;-89
2023/01/04 00:42:07;;;;;;;0.68;0.68;;;;;;;16.82;38.26;100474.16;6188134;23;20004;-88
2023/01/04 00:44:33;;;;;;;1.08;0.77;;;;;;;16.71;38.36;100463.06;6189420;23;20004;-89
2023/01/04 00:46:59;;;;;;;0.98;0.90;;;;;;;16.63;38.14;100449.88;6190803;23;20004;-88
2023/01/04 00:49:25;;;;;;;1.17;0.82;;;;;;;16.70;38.34;100472.22;6191642;23;20089;-88
2023/01/04 00:51:51;;;;;;;0.75;0.70;;;;;;;16.66;38.46;100462.94;6191090;23;20008;-89
2023/01/04 00:54:17;;;;;;;1.88;0.80;;;;;;;16.74;38.39;100471.75;6215170;23;20310;-88
2023/01/04 00:56:43;;;;;;;0.93;0.68;;;;;;;16.55;38.37;100446.66;6190429;23;20074;-89
2023/01/04 00:59:09;;;;;;;1.73;0.90;;;;;;;16.81;38.33;100483.28;6191435;23;20057;-88
2023/01/04 01:01:35;;;;;;;1.10;0.80;;;;;;;16.70;38.28;100477.59;6191512;23;20095;-88
2023/01/04 01:04:02;;;;;;;2.17;1.02;;;;;;;16.81;38.46;100499.50;6191674;23;19998;-88
2023/01/04 01:06:28;;;;;;;0.82;0.80;;;;;;;16.79;38.24;100485.41;6215752;23;20011;-88
2023/01/04 01:08:54;;;;;;;1.65;0.90;;;;;;;16.70;38.44;100480.31;6215457;23;20000;-89
2023/01/04 01:11:20;;;;;;;1.30;0.90;;;;;;;16.77;38.53;100492.91;6190852;23;20015;-89
2023/01/04 01:13:46;;;;;;;1.95;0.90;;;;;;;16.67;38.27;100488.84;6190779;23;20082;-88
2023/01/04 01:16:13;;;;;;;1.50;0.80;;;;;;;16.80;38.31;100504.06;6190280;23;20006;-89
2023/01/04 01:18:39;;;;;;;1.75;0.90;;;;;;;16.77;38.33;100492.91;6190408;23;20016;-88
2023/01/04 01:21:10;;;;;;;1.52;0.80;;;;;;;16.74;38.41;100493.34;6189672;23;20015;-88
2023/01/04 01:23:36;;;;;;;0.82;0.80;;;;;;;16.66;38.21;100476.41;6190667;23;20011;-88
2023/01/04 01:26:03;;;;;;;1.17;0.88;;;;;;;16.68;38.30;100485.09;6189792;23;20015;-89
2023/01/04 01:28:29;;;;;;;2.45;1.00;;;;;;;16.80;38.28;100500.53;6190462;23;20004;-89
2023/01/04 01:30:55;;;;;;;1.77;0.80;;;;;;;16.74;38.31;100494.16;6190497;23;20011;-89
2023/01/04 01:33:21;;;;;;;0.98;0.75;;;;;;;16.75;38.36;100495.81;6189909;23;20464;-88
2023/01/04 01:35:46;;;;;;;1.30;0.80;;;;;;;16.70;38.22;100482.19;6189644;23;20008;-88
2023/01/04 01:38:12;;;;;;;2.22;0.77;;;;;;;16.85;38.35;100512.34;6189752;23;20018;-88
2023/01/04 01:40:42;;;;;;;1.17;1.00;;;;;;;16.73;38.10;100487.13;6188713;23;20011;-89
2023/01/04 01:43:18;;;;;;;1.73;0.85;;;;;;;16.49;38.38;100460.00;6190114;23;20010;-89
2023/01/04 01:45:44;;;;;;;1.13;0.80;;;;;;;16.66;38.33;100475.56;6190245;23;20066;-89
2023/01/04 01:48:11;;;;;;;1.13;0.88;;;;;;;16.94;38.42;100531.75;6215086;23;20015;-89
2023/01/04 01:50:58;;;;;;;1.00;0.65;;;;;;;16.96;38.23;100526.94;6189971;23;20036;-88
2023/01/04 01:53:24;;;;;;;0.70;0.70;;;;;;;16.83;38.11;100500.06;6215079;23;20369;-89
2023/01/04 01:55:51;;;;;;;0.75;0.73;;;;;;;16.76;38.13;100485.84;6189386;23;20008;-88
2023/01/04 01:58:24;;;;;;;0.70;0.70;;;;;;;16.96;38.32;100524.25;6189799;23;20058;-89
2023/01/04 02:00:50;;;;;;;1.40;0.90;;;;;;;16.81;38.24;100497.59;6190745;23;20038;-88
2023/01/04 02:03:18;;;;;;;0.63;0.63;;;;;;;16.63;38.36;100463.38;6189944;23;20069;-89
2023/01/04 02:05:44;;;;;;;1.05;0.73;;;;;;;16.95;38.33;100514.50;6189863;23;20104;-88
2023/01/04 02:08:10;;;;;;;0.80;0.80;;;;;;;16.88;38.31;100505.66;6189751;23;20066;-89
2023/01/04 02:10:39;;;;;;;0.93;0.77;;;;;;;16.88;38.23;100505.66;6189774;23;20472;-88
2023/01/04 02:13:08;;;;;;;1.35;0.98;;;;;;;16.81;38.23;100486.00;6189016;23;20008;-88
2023/01/04 02:15:47;;;;;;;1.35;0.90;;;;;;;16.81;38.15;100486.00;6190206;23;20004;-88
2023/01/04 02:18:16;;;;;;;1.10;0.70;;;;;;;16.77;38.30;100474.00;6191879;23;20103;-88
2023/01/04 02:20:47;;;;;;;2.03;1.00;;;;;;;16.81;38.24;100484.09;6189416;23;20004;-89
2023/01/04 02:23:18;;;;;;;1.63;0.90;;;;;;;17.00;38.30;100517.34;6190444;23;20444;-88
2023/01/04 02:26:17;;;;;;;1.40;0.80;;;;;;;17.01;38.09;100516.28;6239378;23;20012;-89
2023/01/04 02:29:04;;;;;;;1.13;0.70;;;;;;;17.02;38.27;100523.34;6213934;23;20351;-88
2023/01/04 02:31:59;;;;;;;0.70;0.70;;;;;;;17.00;38.28;100524.63;6239342;23;20493;-89
2023/01/04 02:34:34;;;;;;;;;;;;;;;17.01;38.38;100521.69;6233209;23;20034;-89
2023/01/04 02:37:21;;;;;;;1.45;0.90;;;;;;;16.95;38.16;100516.38;6238957;23;19911;-89
2023/01/04 02:39:48;;;;;;;1.52;1.05;;;;;;;16.99;38.25;100515.69;6218203;23;20392;-89
2023/01/04 02:45:38;;;;;;;1.05;0.70;;;;;;;16.94;38.22;100504.75;6240215;23;20019;-89
2023/01/04 02:50:58;;;;;;;0.82;0.65;;;;;;;17.03;38.12;100521.47;6218187;23;20015;-89
2023/01/04 02:53:34;;;;;;;1.42;0.90;;;;;;;16.96;38.15;100524.25;6188878;23;20341;-88
2023/01/04 02:56:06;;;;;;;0.98;0.80;;;;;;;17.02;38.21;100534.16;6190498;23;20019;-89
2023/01/04 02:58:39;;;;;;;2.03;1.02;;;;;;;17.00;38.27;100530.84;6214046;23;20016;-88
2023/01/04 03:07:20;;;;;;;1.42;0.80;;;;;;;17.03;38.22;100538.47;6239422;23;20015;-89
2023/01/04 03:09:46;;;;;;;1.27;0.80;;;;;;;17.00;38.47;100547.03;6214121;23;20004;-89
2023/01/04 03:12:30;;;;;;;1.27;0.80;;;;;;;16.94;38.09;100537.16;6189208;23;20005;-89
2023/01/04 03:15:12;;;;;;;1.50;0.73;;;;;;;16.96;38.34;100535.06;6195282;23;20020;-89
2023/01/04 03:18:02;;;;;;;0.98;0.60;;;;;;;16.84;38.33;100509.88;6214267;23;20415;-88
2023/01/04 03:20:29;;;;;;;0.98;0.68;;;;;;;16.84;38.16;100515.25;6190932;23;20098;-89
2023/01/04 03:37:15;;;;;;;0.98;0.80;;;;;;;16.79;38.28;100509.69;6217214;23;20337;-89
2023/01/04 03:48:30;;;;;;;1.23;0.93;;;;;;;16.94;38.15;100531.75;6238860;23;20094;-89
2023/01/04 03:51:00;;;;;;;0.80;0.68;;;;;;;17.07;38.09;100541.56;6194027;23;20023;-89
2023/01/04 03:53:29;;;;;;;1.50;0.85;;;;;;;16.87;37.98;100510.25;6214525;23;20004;-89
2023/01/04 03:55:55;;;;;;;0.98;0.75;;;;;;;16.86;38.20;100508.56;6188638;23;20004;-89
2023/01/04 03:58:21;;;;;;;1.05;0.70;;;;;;;16.76;38.17;100488.53;6188493;23;20019;-89
2023/01/04 04:00:47;;;;;;;1.20;0.73;;;;;;;17.06;37.86;100534.53;6188219;23;20010;-88
2023/01/04 04:03:12;;;;;;;1.70;0.75;;;;;;;16.92;38.05;100511.41;6213969;23;20018;-89
2023/01/04 04:08:27;;;;;;;0.52;0.52;;;;;;;16.98;38.24;100541.03;6217836;23;20454;-89
2023/01/04 04:10:54;;;;;;;1.10;0.60;;;;;;;16.91;38.20;100520.59;6189978;23;20043;-88
2023/01/04 04:13:19;;;;;;;1.85;0.85;;;;;;;16.92;38.06;100520.38;6188781;23;20000;-89
2023/01/04 04:15:45;;;;;;;1.17;0.63;;;;;;;16.98;38.18;100534.81;6188848;23;20015;-89
2023/01/04 04:18:11;;;;;;;1.45;0.65;;;;;;;16.83;38.11;100502.78;6187924;23;20023;-89
2023/01/04 04:20:40;;;;;;;1.17;0.80;;;;;;;16.86;38.29;100508.56;6213141;23;20076;-89
2023/01/04 04:23:06;;;;;;;1.98;0.75;;;;;;;16.86;38.04;100505.06;6188413;23;20027;-89
2023/01/04 04:25:32;;;;;;;0.73;0.73;;;;;;;16.94;38.03;100515.56;6188999;23;20430;-89
2023/01/04 04:27:57;;;;;;;1.35;0.80;;;;;;;16.94;37.85;100509.34;6188068;23;20004;-89
2023/01/04 04:30:23;;;;;;;0.70;0.63;;;;;;;16.93;38.09;100516.59;6188588;23;20004;-89
2023/01/04 04:32:49;;;;;;;1.20;0.65;;;;;;;16.92;37.90;100508.72;6187956;23;20008;-89
2023/01/04 04:35:15;;;;;;;1.00;0.57;;;;;;;16.93;38.18;100505.81;6188472;23;20015;-88
2023/01/04 04:37:40;;;;;;;1.85;0.77;;;;;;;17.03;37.98;100519.59;6213035;23;20065;-88
2023/01/04 04:41:36;;;;;;;1.77;0.60;;;;;;;16.81;37.95;100483.28;6188539;23;20277;-89
2023/01/04 04:42:52;;;;;;;0.60;0.50;;;;;;;16.94;37.95;100503.94;6217524;23;20046;-88
2023/01/04 04:45:18;;;;;;;1.00;0.63;;;;;;;16.92;37.98;100501.47;6188167;23;20082;-88
2023/01/04 04:47:44;;;;;;;1.65;0.70;;;;;;;16.98;37.90;100519.44;6188108;23;20103;-89
2023/01/04 04:50:09;;;;;;;0.70;0.60;;;;;;;16.92;37.89;100501.47;6188508;23;20500;-89
2023/01/04 04:52:40;;;;;;;0.77;0.57;;;;;;;16.96;37.84;100513.44;6188314;23;20004;-88
2023/01/04 04:55:06;;;;;;;0.85;0.70;;;;;;;16.84;38.07;100493.69;6214257;23;20007;-88
2023/01/04 04:57:32;;;;;;;0.85;0.60;;;;;;;16.99;37.94;100521.09;6238380;23;20301;-89
2023/01/04 04:59:58;;;;;;;0.57;0.50;;;;;;;16.88;38.05;100516.44;6214089;23;20532;-88
2023/01/04 05:02:24;;;;;;;0.95;0.63;;;;;;;17.01;38.01;100540.59;6188237;23;20062;-88
2023/01/04 05:04:49;;;;;;;0.40;0.40;;;;;;;16.85;37.89;100511.50;6212452;23;20528;-88
2023/01/04 05:07:15;;;;;;;1.83;0.77;;;;;;;16.85;38.00;100511.50;6187510;23;20066;-88
2023/01/04 05:09:41;;;;;;;1.02;0.50;;;;;;;16.86;37.92;100519.38;6188807;23;20011;-89
2023/01/04 05:14:52;;;;;;;1.45;0.50;;;;;;;16.91;37.90;100529.50;6217924;23;20038;-88
2023/01/04 05:17:17;;;;;;;0.93;0.55;;;;;;;16.82;38.00;100531.66;6211916;23;20012;-89
2023/01/04 05:19:43;;;;;;;1.83;0.70;;;;;;;16.78;37.87;100508.88;6189098;23;20143;-88
2023/01/04 05:22:09;;;;;;;0.73;0.60;;;;;;;16.92;37.85;100544.66;6187962;23;20330;-89
2023/01/04 05:24:35;;;;;;;0.85;0.70;;;;;;;16.81;38.07;100535.38;6184540;23;20586;-89
2023/01/04 05:27:00;;;;;;;0.47;0.40;;;;;;;16.94;38.05;100556.06;6184528;23;20475;-89
2023/01/04 05:32:10;;;;;;;;;;;;;;;17.13;37.91;100569.56;6212574;23;20702;-89
2023/01/04 05:34:39;;;;;;;0.68;0.57;;;;;;;16.94;37.86;100539.84;6208538;23;19908;-89
2023/01/04 05:37:05;;;;;;;0.70;0.63;;;;;;;16.97;37.65;100552.06;6183270;23;20468;-88
2023/01/04 05:39:31;;;;;;;1.40;0.65;;;;;;;16.87;37.75;100536.41;6209612;23;20012;-89
2023/01/04 05:44:41;;;;;;;0.68;0.55;;;;;;;16.94;37.73;100547.94;6217253;23;20015;-88
2023/01/04 05:47:06;;;;;;;1.38;0.70;;;;;;;16.82;37.72;100528.13;6190013;23;20012;-88
2023/01/04 05:49:32;;;;;;;1.50;0.70;;;;;;;17.02;37.62;100563.84;6190282;23;20015;-89
2023/01/04 05:51:58;;;;;;;1.20;0.70;;;;;;;16.80;37.72;100516.72;6190804;23;20004;-88
2023/01/04 05:54:23;;;;;;;0.50;0.32;;;;;;;16.96;37.69;100556.66;6242688;22;20012;-89
2023/01/04 05:56:49;;;;;;;1.58;0.50;;;;;;;16.79;37.71;100525.88;6190113;23;20091;-89
2023/01/04 05:59:15;;;;;;;0.63;0.63;;;;;;;17.02;37.57;100568.41;6215771;23;20026;-88
2023/01/04 06:01:41;;;;;;;0.60;0.60;;;;;;;17.02;37.59;100566.56;6190575;23;20000;-89
2023/01/04 06:04:06;;;;;;;0.47;0.40;;;;;;;16.97;37.60;100552.91;6215682;23;20004;-89
2023/01/04 06:06:32;;;;;;;1.42;0.60;;;;;;;16.86;37.62;100532.06;6190122;23;20007;-88
2023/01/04 06:08:58;;;;;;;0.63;0.60;;;;;;;16.97;37.57;100541.25;6190088;23;20468;-89
2023/01/04 06:11:23;;;;;;;0.40;0.40;;;;;;;16.83;37.70;100519.81;6215615;23;20004;-89
2023/01/04 06:13:49;;;;;;;0.70;0.60;;;;;;;17.00;37.61;100549.72;6240734;23;20008;-88
2023/01/04 06:16:15;;;;;;;1.25;0.60;;;;;;;16.87;37.63;100531.03;6188332;23;20011;-89
2023/01/04 06:18:41;;;;;;;0.70;0.60;;;;;;;16.98;37.65;100546.44;6214688;23;20013;-88
2023/01/04 06:21:06;;;;;;;1.27;0.57;;;;;;;17.10;37.92;100572.69;6190032;23;20004;-89
2023/01/04 06:23:32;;;;;;;0.80;0.60;;;;;;;16.92;37.87;100544.66;6242512;22;19996;-88
2023/01/04 06:25:58;;;;;;;0.82;0.60;;;;;;;17.00;37.68;100547.03;6190410;23;20008;-89
2023/01/04 06:28:23;;;;;;;1.17;0.63;;;;;;;16.97;37.65;100542.09;6190037;23;20099;-88
2023/01/04 06:30:49;;;;;;;0.47;0.43;;;;;;;16.96;37.56;100551.25;6189921;23;20030;-88
2023/01/04 06:33:15;;;;;;;0.60;0.50;;;;;;;16.97;37.68;100554.75;6190423;23;20000;-89
2023/01/04 06:35:40;;;;;;;0.55;0.55;;;;;;;16.92;37.53;100558.16;6241912;22;20007;-89
2023/01/04 06:38:06;;;;;;;0.90;0.50;;;;;;;17.01;37.62;100567.59;6190086;23;20058;-89
2023/01/04 06:40:32;;;;;;;0.70;0.50;;;;;;;16.97;37.78;100555.59;6190660;23;20059;-89
2023/01/04 06:42:57;;;;;;;0.30;0.30;;;;;;;16.93;37.62;100554.38;6189550;23;20004;-88
2023/01/04 06:45:23;;;;;;;1.27;0.50;;;;;;;16.95;37.71;100554.16;6190031;23;20010;-89
2023/01/04 06:47:49;;;;;;;0.50;0.45;;;;;;;16.99;37.61;100558.06;6189595;23;20022;-89
2023/01/04 06:50:15;;;;;;;0.68;0.50;;;;;;;17.20;37.56;100587.31;6189729;23;20008;-89
2023/01/04 06:52:40;;;;;;;0.55;0.50;;;;;;;16.86;37.67;100542.84;6189593;23;20008;-89
2023/01/04 06:55:08;;;;;;;0.40;0.40;;;;;;;17.12;37.53;100590.31;6190270;23;20009;-89
2023/01/04 06:57:34;;;;;;;0.40;0.40;;;;;;;16.97;37.53;100563.72;6190593;23;20016;-89
2023/01/04 06:59:59;;;;;;;1.30;0.40;;;;;;;17.02;37.60;100573.81;6189910;23;20038;-89
2023/01/04 07:02:25;;;;;;;0.35;0.30;;;;;;;16.88;37.69;100551.53;6190396;23;20417;-88
2023/01/04 07:04:51;;;;;;;0.45;0.45;;;;;;;16.85;37.75;100555.53;6189719;23;20012;-89
2023/01/04 07:07:17;;;;;;;0.73;0.47;;;;;;;16.99;37.57;100567.00;6214943;23;20044;-89
2023/01/04 07:09:42;;;;;;;0.55;0.45;;;;;;;16.94;37.54;100561.44;6189823;23;20334;-89
2023/01/04 07:12:08;;;;;;;0.50;0.47;;;;;;;17.01;37.67;100580.28;6190772;23;20477;-89
2023/01/04 07:14:34;;;;;;;0.80;0.38;;;;;;;16.84;37.56;100547.66;6189747;23;20015;-88
2023/01/04 07:17:00;;;;;;;1.17;0.50;;;;;;;17.01;37.62;100575.69;6189325;23;20020;-89
2023/01/04 07:19:25;;;;;;;0.47;0.47;;;;;;;17.03;37.66;100581.69;6188251;23;20026;-89
2023/01/04 07:21:52;;;;;;;0.47;0.47;;;;;;;16.92;37.63;100566.25;6190412;23;20004;-89
2023/01/04 07:24:18;;;;;;;0.88;0.35;;;;;;;16.89;37.68;100561.31;6188709;23;20004;-88
2023/01/04 07:26:44;;;;;;;0.63;0.40;;;;;;;16.97;37.56;100555.59;6214162;23;20011;-89
2023/01/04 07:29:15;;;;;;;0.40;0.35;;;;;;;17.19;37.61;100601.03;6187191;23;20012;-89
2023/01/04 07:31:49;;;;;;;1.85;0.40;;;;;;;17.09;37.58;100571.84;6239559;23;20004;-89
2023/01/04 07:34:16;;;;;;;0.50;0.50;;;;;;;16.94;37.55;100555.25;6239435;23;20024;-89
2023/01/04 07:36:46;;;;;;;0.40;0.40;;;;;;;17.11;37.55;100585.13;6212625;23;20007;-89
2023/01/04 07:39:12;;;;;;;0.60;0.60;;;;;;;17.06;37.55;100578.53;6214715;23;20078;-89
2023/01/04 07:41:38;;;;;;;0.57;0.47;;;;;;;17.19;37.51;100598.34;6188940;23;20004;-89
2023/01/04 07:44:04;;;;;;;0.65;0.40;;;;;;;17.02;37.52;100565.72;6189049;23;20015;-89
2023/01/04 07:46:31;;;;;;;0.52;0.30;;;;;;;16.96;37.55;100550.44;6188423;23;20008;-89
2023/01/04 07:48:57;;;;;;;0.63;0.50;;;;;;;16.96;37.65;100562.03;6188054;23;20349;-89
2023/01/04 07:51:22;;;;;;;0.55;0.45;;;;;;;17.09;37.62;100585.34;6188400;23;20087;-89
2023/01/04 07:53:48;;;;;;;0.38;0.38;;;;;;;17.12;37.53;100593.00;6188794;23;20008;-89
2023/01/04 07:56:14;;;;;;;0.68;0.40;;;;;;;17.19;37.49;100601.03;6188334;23;20012;-89
2023/01/04 07:58:40;;;;;;;0.47;0.47;;;;;;;17.06;37.55;100583.94;6188159;23;20008;-89
2023/01/04 08:01:13;;;;;;;0.30;0.30;;;;;;;16.93;37.72;100562.50;6188859;23;20074;-89
2023/01/04 08:03:39;;;;;;;0.40;0.40;;;;;;;16.96;37.59;100561.22;6188853;23;20011;-89
2023/01/04 08:06:06;;;;;;;0.35;0.30;;;;;;;17.03;37.64;100575.47;6188483;23;20000;-89
2023/01/04 08:08:31;;;;;;;1.17;0.40;;;;;;;16.94;37.46;100564.16;6188356;23;20008;-89
2023/01/04 08:11:05;;;;;;;0.55;0.43;;;;;;;16.98;37.48;100567.22;6188400;23;20404;-89
2023/01/04 08:13:31;;;;;;;0.50;0.40;;;;;;;17.08;37.56;100584.53;6188504;23;20000;-89
2023/01/04 08:15:57;;;;;;;0.57;0.40;;;;;;;16.99;37.69;100577.81;6188612;23;20015;-89
2023/01/04 08:18:22;;;;;;;0.63;0.40;;;;;;;17.23;37.56;100607.63;6188695;23;20024;-89
2023/01/04 08:20:48;;;;;;;0.80;0.47;;;;;;;17.24;37.70;100611.97;6188109;23;20004;-89
2023/01/04 08:23:14;;;;;;;0.40;0.40;;;;;;;17.06;37.40;100592.03;6188691;23;20011;-89
2023/01/04 08:25:39;;;;;;;0.55;0.45;;;;;;;17.21;37.75;100607.88;6188736;23;20012;-89
2023/01/04 08:28:05;;;;;;;0.38;0.32;;;;;;;17.22;37.46;100616.78;6188584;23;20034;-89
2023/01/04 08:30:31;;;;;;;1.10;0.40;;;;;;;17.15;37.59;100600.66;6188602;23;20012;-89
2023/01/04 08:32:57;;;;;;;0.80;0.40;;;;;;;16.97;37.49;100569.09;6188751;23;20203;-88
2023/01/04 08:35:23;;;;;;;1.10;0.50;;;;;;;17.00;37.52;100579.44;6188910;23;20232;-89
2023/01/04 08:37:48;;;;;;;0.52;0.43;;;;;;;17.02;37.59;100592.72;6213902;23;20008;-89
2023/01/04 08:40:14;;;;;;;0.38;0.38;;;;;;;16.96;37.43;100575.53;6213697;23;20133;-89
2023/01/04 08:42:40;;;;;;;0.47;0.47;;;;;;;17.00;37.46;100587.53;6188142;23;20011;-88
2023/01/04 08:45:06;;;;;;;0.40;0.40;;;;;;;16.89;37.57;100567.50;6189312;23;20010;-89
2023/01/04 08:47:32;;;;;;;0.60;0.45;;;;;;;16.98;37.55;100581.53;6189428;23;20004;-89
2023/01/04 08:49:58;;;;;;;0.82;0.50;;;;;;;17.01;37.48;100583.78;6214345;23;20426;-88
2023/01/04 08:52:23;;;;;;;0.40;0.40;;;;;;;17.03;37.47;100584.38;6188563;23;20015;-89
2023/01/04 08:54:49;;;;;;;0.63;0.50;;;;;;;17.25;37.39;100624.44;6188862;23;20007;-89
2023/01/04 08:57:16;;;;;;;0.60;0.50;;;;;;;17.07;37.42;100599.09;6189569;23;20008;-89
2023/01/04 08:59:41;;;;;;;1.05;0.38;;;;;;;17.02;37.36;100585.47;6189708;23;20026;-88
2023/01/04 09:02:25;;;;;;;0.57;0.47;;;;;;;17.03;37.54;100589.78;6189370;23;20567;-89
2023/01/04 09:04:50;;;;;;;0.88;0.45;;;;;;;16.84;37.47;100570.06;6188981;23;20290;-89
2023/01/04 09:07:16;;;;;;;0.73;0.52;;;;;;;17.15;37.36;100624.16;6216761;23;20000;-88
2023/01/04 09:09:42;;;;;;;0.85;0.50;;;;;;;17.10;37.53;100626.69;6216848;23;20647;-89
2023/01/04 09:12:08;;;;;;;0.90;0.65;;;;;;;17.21;37.48;100631.34;6212267;23;20083;-89
2023/01/04 09:14:34;;;;;;;0.60;0.40;;;;;;;17.09;37.34;100617.75;6191216;23;20036;-88
2023/01/04 09:16:59;;;;;;;0.90;0.60;;;;;;;17.13;37.49;100612.75;6190681;23;20065;-89
2023/01/04 09:19:25;;;;;;;0.70;0.70;;;;;;;17.09;37.40;100609.66;6190288;23;20070;-89
2023/01/04 09:21:53;;;;;;;0.77;0.65;;;;;;;17.00;37.36;100603.72;6190921;23;20335;-89
2023/01/04 09:24:19;;;;;;;1.15;0.65;;;;;;;16.95;37.43;100592.78;6215989;23;20422;-89
2023/01/04 09:26:46;;;;;;;0.80;0.73;;;;;;;17.02;37.14;100614.31;6189985;23;20015;-89
2023/01/04 09:29:11;;;;;;;0.70;0.70;;;;;;;17.12;37.35;100630.00;6215895;23;20004;-88
2023/01/04 09:31:37;;;;;;;1.10;0.80;;;;;;;17.11;37.28;100628.34;6190540;23;20448;-89
2023/01/04 09:34:03;;;;;;;1.90;1.00;;;;;;;16.97;37.27;100597.97;6215618;23;20467;-89
2023/01/04 09:36:29;;;;;;;1.30;0.70;;;;;;;17.31;37.24;100644.31;6191603;23;20004;-88
2023/01/04 09:38:54;;;;;;;0.90;0.70;;;;;;;16.98;37.29;100600.44;6215138;23;20026;-89
2023/01/04 09:41:33;;;;;;;1.55;0.90;;;;;;;17.23;37.12;100653.53;6191048;23;20004;-88
2023/01/04 09:44:08;;;;;;;1.05;0.80;;;;;;;17.30;37.13;100654.31;6190551;23;20392;-89
2023/01/04 09:46:51;;;;;;;1.48;0.80;;;;;;;17.03;37.24;100618.66;6240448;23;20094;-89
2023/01/04 09:49:30;;;;;;;0.93;0.70;;;;;;;17.07;37.38;100622.56;6191869;23;20004;-89
2023/01/04 09:52:09;;;;;;;0.57;0.57;;;;;;;17.24;37.24;100656.00;6190922;23;20364;-89
2023/01/04 09:54:53;;;;;;;0.85;0.50;;;;;;;17.14;37.14;100636.00;6215615;23;20094;-89
2023/01/04 09:57:31;;;;;;;1.48;0.98;;;;;;;17.10;37.17;100624.00;6216131;23;20012;-88
2023/01/04 10:00:01;;;;;;;0.88;0.70;;;;;;;17.25;37.03;100656.88;6191142;23;20015;-88
2023/01/04 10:02:50;;;;;;;2.08;0.82;;;;;;;16.98;37.09;100605.84;6188909;23;20032;-88
2023/01/04 10:05:26;;;;;;;1.50;0.95;;;;;;;17.21;37.21;100639.44;6191267;23;20018;-88
2023/01/04 10:07:52;;;;;;;0.68;0.60;;;;;;;17.03;37.01;100616.78;6215269;23;20004;-88
2023/01/04 10:10:20;;;;;;;1.15;0.75;;;;;;;17.14;37.09;100622.50;6237755;23;20054;-88
2023/01/04 10:13:04;;;;;;;0.88;0.77;;;;;;;17.29;37.09;100649.94;6189925;23;20008;-89
2023/01/04 10:15:34;;;;;;;0.70;0.70;;;;;;;17.04;37.03;100604.94;6215099;23;20047;-89
2023/01/04 10:18:21;;;;;;;1.20;0.85;;;;;;;17.33;36.99;100644.91;6190133;23;20400;-88
2023/01/04 10:21:06;;;;;;;0.85;0.80;;;;;;;17.31;37.06;100647.03;6239313;23;20008;-89
2023/01/04 10:23:56;;;;;;;0.60;0.60;;;;;;;17.19;36.82;100642.34;6239933;23;20011;-89
2023/01/04 10:26:39;;;;;;;1.05;0.80;;;;;;;17.10;37.08;100618.59;6215014;23;20053;-89
2023/01/04 10:29:39;;;;;;;1.15;0.75;;;;;;;17.06;37.11;100618.22;6215066;23;20083;-89
2023/01/04 10:32:04;;;;;;;0.90;0.63;;;;;;;17.29;36.99;100652.66;6239278;23;20397;-88
2023/01/04 10:34:38;;;;;;;1.05;0.70;;;;;;;17.08;36.95;100614.25;6241916;22;20328;-89
2023/01/04 10:37:12;;;;;;;1.05;0.90;;;;;;;17.08;37.11;100614.25;6215042;23;20341;-88
2023/01/04 10:39:37;;;;;;;;;;;;;;;17.33;37.14;100650.31;6191674;23;20335;-89
2023/01/04 10:42:33;;;;;;;0.63;0.52;;;;;;;17.33;37.07;100653.84;6214451;23;20366;-89
2023/01/04 10:45:31;;;;;;;0.63;0.63;;;;;;;17.01;37.17;100612.69;6161875;23;20070;-89
2023/01/04 10:48:17;;;;;;;0.70;0.60;;;;;;;17.30;37.11;100657.00;6193759;23;20026;-89
2023/01/04 10:50:56;;;;;;;0.80;0.68;;;;;;;17.16;37.04;100628.47;6214391;23;20106;-89
2023/01/04 10:53:37;;;;;;;0.98;0.75;;;;;;;17.31;36.85;100655.94;6191991;23;20004;-89
2023/01/04 10:56:27;;;;;;;1.30;0.90;;;;;;;17.32;37.01;100654.09;6190959;23;20348;-88
2023/01/04 10:59:07;;;;;;;0.95;0.80;;;;;;;17.09;36.84;100620.44;6213431;23;20039;-88
2023/01/04 11:01:33;;;;;;;1.70;0.75;;;;;;;17.33;36.90;100645.72;6214393;23;20000;-89
2023/01/04 11:04:05;;;;;;;1.02;0.80;;;;;;;17.16;37.01;100614.97;6241722;22;20011;-89
2023/01/04 11:06:34;;;;;;;0.60;0.60;;;;;;;17.19;36.96;100619.94;6189853;23;20030;-89
2023/01/04 11:09:07;;;;;;;0.82;0.80;;;;;;;17.30;36.94;100635.41;6214941;23;20031;-89
2023/01/04 11:11:56;;;;;;;0.88;0.70;;;;;;;17.36;36.79;100637.19;6190141;23;20008;-88
2023/01/04 11:14:23;;;;;;;0.55;0.55;;;;;;;17.23;36.85;100623.81;6214742;23;20073;-89
2023/01/04 11:16:50;;;;;;;1.83;0.90;;;;;;;17.14;37.16;100606.28;6189099;23;20071;-89
2023/01/04 11:19:16;;;;;;;0.88;0.75;;;;;;;17.14;36.86;100611.69;6189376;23;20357;-89
2023/01/04 11:21:55;;;;;;;0.82;0.70;;;;;;;17.25;36.87;100622.56;6189506;23;20010;-89
2023/01/04 11:24:21;;;;;;;1.08;0.80;;;;;;;17.20;36.88;100616.19;6191527;23;20424;-89
2023/01/04 11:26:47;;;;;;;0.60;0.60;;;;;;;17.12;36.85;100597.59;6188501;23;20008;-89
2023/01/04 11:29:43;;;;;;;0.80;0.77;;;;;;;17.36;36.75;100626.38;6239976;23;20054;-89
2023/01/04 11:32:15;;;;;;;0.80;0.80;;;;;;;17.38;36.95;100636.97;6208143;23;20027;-89
2023/01/04 11:34:43;;;;;;;1.20;0.82;;;;;;;17.36;37.15;100631.78;6240175;22;20004;-88
2023/01/04 11:37:32;;;;;;;1.63;1.00;;;;;;;17.29;36.91;100619.41;6238120;23;20087;-88
2023/01/04 11:40:19;;;;;;;0.93;0.82;;;;;;;17.37;36.93;100629.94;6188793;23;20070;-89
2023/01/04 11:43:11;;;;;;;1.17;0.90;;;;;;;17.36;36.83;100641.78;6239416;23;20325;-88
2023/01/04 11:45:37;;;;;;;0.90;0.70;;;;;;;17.12;36.78;100603.00;6213852;23;20014;-88
2023/01/04 11:48:05;;;;;;;0.70;0.70;;;;;;;17.15;36.80;100606.06;6188085;23;20012;-88
2023/01/04 11:50:38;;;;;;;0.98;0.80;;;;;;;17.35;36.76;100635.53;6239024;23;20361;-89
2023/01/04 11:53:25;;;;;;;1.42;0.80;;;;;;;17.21;36.89;100617.81;6237652;23;20004;-88
2023/01/04 11:55:51;;;;;;;1.08;0.77;;;;;;;16.98;36.97;100578.03;6188162;23;20032;-89
2023/01/04 11:58:18;;;;;;;0.80;0.80;;;;;;;17.00;36.79;100600.22;6187413;23;20019;-88
2023/01/04 12:00:54;;;;;;;1.05;0.80;;;;;;;17.22;36.69;100620.31;6187770;23;20015;-89
2023/01/04 12:03:31;;;;;;;1.40;0.90;;;;;;;17.06;36.83;100592.03;6188227;23;20058;-88
2023/01/04 12:05:57;;;;;;;1.38;1.00;;;;;;;17.24;36.81;100622.78;6188926;23;20460;-89
2023/01/04 12:08:33;;;;;;;0.85;0.85;;;;;;;17.19;36.67;100612.66;6188696;23;20016;-88
2023/01/04 12:11:00;;;;;;;0.93;0.82;;;;;;;17.26;36.77;100617.97;6187509;23;20383;-89
2023/01/04 12:13:26;;;;;;;1.05;0.80;;;;;;;17.23;36.79;100621.13;6188441;23;20012;-89
2023/01/04 12:16:06;;;;;;;1.33;0.75;;;;;;;17.39;36.73;100642.13;6187566;23;20019;-89
2023/01/04 12:18:35;;;;;;;0.90;0.75;;;;;;;17.11;36.51;100606.72;6212078;23;20020;-89
2023/01/04 12:21:01;;;;;;;1.00;0.80;;;;;;;17.31;36.74;100644.31;6186655;23;20101;-89
2023/01/04 12:23:27;;;;;;;0.90;0.80;;;;;;;17.21;36.49;100631.34;6186922;23;20091;-88